createdAt,value
2018-03-29T00:00:05.239Z,18.08
2018-03-29T00:01:11.388Z,16.50
2018-03-29T00:02:16.993Z,17.10
2018-03-29T00:03:22.116Z,16.37
2018-03-29T00:04:27.305Z,16.40
2018-03-29T00:05:32.623Z,16.75
2018-03-29T00:06:38.892Z,17.50
2018-03-29T00:07:44.081Z,16.67
2018-03-29T00:08:50.084Z,20.23
2018-03-29T00:09:55.634Z,19.77
2018-03-29T00:11:00.717Z,22.05
2018-03-29T00:12:06.380Z,19.65
2018-03-29T00:13:11.740Z,22.62
2018-03-29T00:14:17.227Z,20.30
2018-03-29T00:15:22.396Z,23.25
2018-03-29T00:16:27.713Z,27.23
2018-03-29T00:17:33.161Z,25.10
2018-03-29T00:18:38.658Z,22.85
2018-03-29T00:19:43.914Z,23.60
2018-03-29T00:20:50.279Z,26.75
2018-03-29T00:21:55.857Z,27.30
2018-03-29T00:23:01.971Z,29.10
2018-03-29T00:24:07.361Z,30.20
2018-03-29T00:25:12.709Z,28.27
2018-03-29T00:26:18.141Z,30.00
2018-03-29T00:27:23.318Z,28.33
2018-03-29T00:28:28.445Z,30.23
2018-03-29T00:29:33.649Z,28.10
2018-03-29T00:30:38.834Z,30.55
2018-03-29T00:31:44.269Z,30.58
2018-03-29T00:32:50.205Z,32.53
2018-03-29T00:33:56.315Z,27.37
2018-03-29T00:35:01.658Z,29.48
2018-03-29T00:36:06.958Z,25.42
2018-03-29T00:37:12.137Z,28.33
2018-03-29T00:38:18.053Z,31.20
2018-03-29T00:39:22.889Z,31.37
2018-03-29T00:40:28.256Z,29.02
2018-03-29T00:41:33.607Z,27.37
2018-03-29T00:42:39.011Z,28.02
2018-03-29T00:43:44.119Z,27.95
2018-03-29T00:44:50.589Z,25.80
2018-03-29T00:45:56.948Z,27.97
2018-03-29T00:47:02.613Z,27.65
2018-03-29T00:48:07.843Z,28.87
2018-03-29T00:49:13.023Z,25.67
2018-03-29T00:50:19.350Z,32.10
2018-03-29T00:51:24.332Z,28.52
2018-03-29T00:52:29.694Z,26.83
2018-03-29T00:53:50.510Z,27.77
2018-03-29T00:54:55.706Z,33.22
2018-03-29T00:56:00.935Z,32.80
2018-03-29T00:57:06.014Z,31.20
2018-03-29T00:58:12.301Z,29.92
2018-03-29T00:59:17.084Z,28.48
2018-03-29T01:00:23.060Z,34.45
2018-03-29T01:01:28.343Z,34.40
2018-03-29T01:02:33.453Z,35.08
2018-03-29T01:03:38.573Z,38.80
2018-03-29T01:04:43.695Z,35.17
2018-03-29T01:05:49.630Z,32.95
2018-03-29T01:06:54.730Z,32.80
2018-03-29T01:07:59.837Z,34.67
2018-03-29T01:09:06.701Z,33.95
2018-03-29T01:10:12.318Z,36.90
2018-03-29T01:11:17.405Z,39.57
2018-03-29T01:12:22.661Z,31.73
2018-03-29T01:13:28.082Z,33.15
2018-03-29T01:14:33.586Z,33.53
2018-03-29T01:15:38.633Z,35.13
2018-03-29T01:16:43.898Z,33.78
2018-03-29T01:17:49.837Z,34.53
2018-03-29T01:18:54.817Z,34.65
2018-03-29T01:19:59.429Z,33.17
2018-03-29T01:21:05.246Z,32.42
2018-03-29T01:22:10.951Z,34.25
2018-03-29T01:23:15.777Z,30.37
2018-03-29T01:24:20.776Z,32.53
2018-03-29T01:25:25.715Z,31.83
2018-03-29T01:26:32.291Z,26.95
2018-03-29T01:27:38.553Z,31.05
2018-03-29T01:28:44.220Z,31.33
2018-03-29T01:29:49.796Z,31.05
2018-03-29T01:30:54.891Z,29.65
2018-03-29T01:31:59.635Z,29.85
2018-03-29T01:33:04.411Z,30.37
2018-03-29T01:34:09.366Z,32.17
2018-03-29T01:35:14.302Z,31.33
2018-03-29T01:36:19.061Z,28.93
2018-03-29T01:37:24.946Z,30.80
2018-03-29T01:38:29.712Z,32.35
2018-03-29T01:39:35.506Z,27.90
2018-03-29T01:40:40.236Z,32.42
2018-03-29T01:41:47.233Z,29.23
2018-03-29T01:42:52.830Z,34.25
2018-03-29T01:43:58.217Z,31.02
2018-03-29T01:45:03.928Z,33.40
2018-03-29T01:46:08.824Z,32.67
2018-03-29T01:47:13.609Z,30.08
2018-03-29T01:48:18.119Z,29.65
2018-03-29T01:49:23.120Z,28.65
2018-03-29T01:50:28.426Z,32.75
2018-03-29T01:51:32.868Z,31.12
2018-03-29T01:52:38.150Z,35.28
2018-03-29T01:53:42.725Z,30.40
2018-03-29T01:54:48.287Z,31.15
2018-03-29T01:55:52.600Z,29.30
2018-03-29T01:56:57.052Z,34.22
2018-03-29T01:58:01.811Z,30.60
2018-03-29T01:59:06.331Z,32.72
2018-03-29T02:00:10.815Z,31.23
2018-03-29T02:01:15.283Z,33.70
2018-03-29T02:02:19.736Z,31.62
2018-03-29T02:03:24.418Z,30.85
2018-03-29T02:04:28.931Z,32.45
2018-03-29T02:05:33.625Z,28.80
2018-03-29T02:06:38.292Z,29.42
2018-03-29T02:07:43.110Z,32.60
2018-03-29T02:08:48.675Z,30.17
2018-03-29T02:09:53.166Z,31.45
2018-03-29T02:10:57.849Z,36.00
2018-03-29T02:12:02.545Z,30.73
2018-03-29T02:13:07.192Z,33.75
2018-03-29T02:14:13.255Z,32.50
2018-03-29T02:15:17.748Z,33.33
2018-03-29T02:16:22.890Z,33.33
2018-03-29T02:17:27.334Z,35.10
2018-03-29T02:18:31.875Z,33.80
2018-03-29T02:19:36.383Z,30.90
2018-03-29T02:20:40.985Z,32.53
2018-03-29T02:21:45.922Z,32.75
2018-03-29T02:22:50.781Z,30.60
2018-03-29T02:23:56.865Z,30.85
2018-03-29T02:25:01.706Z,32.20
2018-03-29T02:26:06.203Z,29.08
2018-03-29T02:27:11.704Z,32.28
2018-03-29T02:28:16.518Z,30.58
2018-03-29T02:29:21.930Z,29.73
2018-03-29T02:30:29.977Z,27.35
2018-03-29T02:31:35.059Z,28.45
2018-03-29T02:32:41.074Z,30.42
2018-03-29T02:33:47.041Z,31.65
2018-03-29T02:34:53.025Z,29.45
2018-03-29T02:35:58.217Z,29.33
2018-03-29T02:37:04.173Z,29.83
2018-03-29T02:38:09.435Z,31.80
2018-03-29T02:39:15.117Z,31.17
2018-03-29T02:40:20.248Z,28.40
2018-03-29T02:41:25.532Z,27.80
2018-03-29T02:42:33.000Z,27.93
2018-03-29T02:43:41.811Z,27.70
2018-03-29T02:44:49.729Z,28.15
2018-03-29T02:45:57.435Z,26.17
2018-03-29T02:47:02.498Z,29.10
2018-03-29T02:48:07.130Z,31.45
2018-03-29T02:49:11.875Z,24.35
2018-03-29T02:50:16.606Z,26.92
2018-03-29T02:51:20.965Z,28.80
2018-03-29T02:52:25.661Z,26.95
2018-03-29T02:53:30.782Z,26.90
2018-03-29T02:54:36.016Z,25.80
2018-03-29T02:55:41.168Z,29.55
2018-03-29T02:56:46.935Z,28.90
2018-03-29T02:57:51.368Z,24.45
2018-03-29T02:58:55.798Z,24.27
2018-03-29T03:00:01.226Z,26.40
2018-03-29T03:01:06.429Z,25.50
2018-03-29T03:02:11.033Z,30.00
2018-03-29T03:03:15.519Z,28.80
2018-03-29T03:04:21.368Z,26.77
2018-03-29T03:05:25.790Z,27.42
2018-03-29T03:06:30.199Z,31.48
2018-03-29T03:07:34.724Z,27.55
2018-03-29T03:08:39.170Z,25.97
2018-03-29T03:09:44.378Z,23.87
2018-03-29T03:10:50.035Z,26.62
2018-03-29T03:11:55.193Z,26.02
2018-03-29T03:12:59.550Z,25.20
2018-03-29T03:14:03.984Z,24.30
2018-03-29T03:15:09.230Z,25.77
2018-03-29T03:16:13.630Z,25.92
2018-03-29T03:17:19.179Z,28.33
2018-03-29T03:18:24.135Z,27.83
2018-03-29T03:19:28.787Z,26.40
2018-03-29T03:20:33.560Z,24.85
2018-03-29T03:21:38.136Z,24.98
2018-03-29T03:22:43.268Z,27.85
2018-03-29T03:23:48.290Z,28.77
2018-03-29T03:24:52.658Z,30.20
2018-03-29T03:25:57.070Z,25.17
2018-03-29T03:27:01.609Z,26.92
2018-03-29T03:28:06.953Z,29.17
2018-03-29T03:29:11.340Z,24.45
2018-03-29T03:30:16.522Z,27.73
2018-03-29T03:31:20.991Z,28.25
2018-03-29T03:32:26.573Z,29.48
2018-03-29T03:33:31.061Z,26.67
2018-03-29T03:34:35.346Z,25.95
2018-03-29T03:35:40.443Z,25.83
2018-03-29T03:36:44.716Z,24.75
2018-03-29T03:37:50.529Z,25.75
2018-03-29T03:38:54.828Z,27.85
2018-03-29T03:40:00.419Z,24.08
2018-03-29T03:41:04.968Z,25.03
2018-03-29T03:42:10.019Z,25.40
2018-03-29T03:43:14.713Z,28.17
2018-03-29T03:44:19.768Z,25.90
2018-03-29T03:45:24.248Z,26.87
2018-03-29T03:46:28.753Z,28.50
2018-03-29T03:47:33.890Z,23.62
2018-03-29T03:48:39.490Z,25.42
2018-03-29T03:49:43.830Z,28.08
2018-03-29T03:50:49.796Z,27.60
2018-03-29T03:51:54.424Z,27.35
2018-03-29T03:52:58.956Z,23.60
2018-03-29T03:54:03.499Z,24.30
2018-03-29T03:55:07.838Z,28.95
2018-03-29T03:56:12.281Z,25.45
2018-03-29T03:57:16.604Z,23.12
2018-03-29T03:58:21.058Z,26.90
2018-03-29T03:59:25.722Z,23.12
2018-03-29T04:00:30.590Z,25.62
2018-03-29T04:01:36.068Z,24.37
2018-03-29T04:02:40.388Z,25.12
2018-03-29T04:03:44.886Z,28.73
2018-03-29T04:04:51.357Z,30.17
2018-03-29T04:05:55.812Z,24.12
2018-03-29T04:07:01.210Z,25.83
2018-03-29T04:08:05.762Z,25.45
2018-03-29T04:09:13.020Z,24.70
2018-03-29T04:10:18.169Z,27.85
2018-03-29T04:11:23.181Z,26.77
2018-03-29T04:12:28.215Z,27.30
2018-03-29T04:13:32.635Z,26.40
2018-03-29T04:14:37.083Z,24.35
2018-03-29T04:15:41.876Z,26.55
2018-03-29T04:16:47.175Z,25.55
2018-03-29T04:17:52.248Z,25.80
2018-03-29T04:18:56.769Z,25.90
2018-03-29T04:20:01.045Z,28.15
2018-03-29T04:21:05.612Z,27.60
2018-03-29T04:22:10.790Z,26.55
2018-03-29T04:23:15.126Z,24.83
2018-03-29T04:24:19.461Z,26.77
2018-03-29T04:25:24.569Z,30.70
2018-03-29T04:26:28.921Z,24.40
2018-03-29T04:27:33.252Z,23.23
2018-03-29T04:28:37.587Z,25.58
2018-03-29T04:29:41.846Z,25.98
2018-03-29T04:30:48.513Z,26.90
2018-03-29T04:31:52.922Z,30.12
2018-03-29T04:32:58.999Z,30.02
2018-03-29T04:34:04.196Z,27.42
2018-03-29T04:35:08.524Z,26.50
2018-03-29T04:36:12.846Z,23.80
2018-03-29T04:37:17.150Z,28.98
2018-03-29T04:38:21.475Z,32.55
2018-03-29T04:39:25.731Z,23.08
2018-03-29T04:40:29.964Z,25.67
2018-03-29T04:41:34.345Z,25.42
2018-03-29T04:42:38.635Z,29.92
2018-03-29T04:43:42.970Z,28.27
2018-03-29T04:44:48.174Z,28.58
2018-03-29T04:45:52.518Z,24.75
2018-03-29T04:46:56.826Z,27.10
2018-03-29T04:48:01.342Z,27.65
2018-03-29T04:49:05.769Z,29.50
2018-03-29T04:50:10.203Z,32.03
2018-03-29T04:51:15.459Z,27.10
2018-03-29T04:52:19.902Z,31.02
2018-03-29T04:53:24.366Z,30.80
2018-03-29T04:54:29.104Z,28.73
2018-03-29T04:55:33.745Z,31.33
2018-03-29T04:56:38.167Z,30.92
2018-03-29T04:57:42.841Z,29.35
2018-03-29T04:58:49.385Z,30.90
2018-03-29T04:59:53.950Z,29.10
2018-03-29T05:00:58.828Z,30.70
2018-03-29T05:02:03.543Z,35.55
2018-03-29T05:03:08.287Z,33.40
2018-03-29T05:04:12.728Z,31.80
2018-03-29T05:05:17.129Z,31.40
2018-03-29T05:06:21.886Z,33.70
2018-03-29T05:07:26.268Z,33.53
2018-03-29T05:08:31.593Z,36.40
2018-03-29T05:09:36.244Z,38.97
2018-03-29T05:10:41.082Z,39.38
2018-03-29T05:11:46.241Z,31.48
2018-03-29T05:12:50.895Z,39.15
2018-03-29T05:13:55.415Z,32.55
2018-03-29T05:15:00.189Z,31.58
2018-03-29T05:16:04.855Z,31.05
2018-03-29T05:17:09.380Z,34.40
2018-03-29T05:18:13.910Z,28.25
2018-03-29T05:19:18.481Z,31.33
2018-03-29T05:20:22.936Z,33.63
2018-03-29T05:21:27.654Z,29.40
2018-03-29T05:22:32.305Z,29.00
2018-03-29T05:23:38.043Z,26.40
2018-03-29T05:24:43.598Z,29.63
2018-03-29T05:25:49.401Z,30.67
2018-03-29T05:26:54.166Z,29.77
2018-03-29T05:27:58.805Z,28.30
2018-03-29T05:29:03.843Z,34.92
2018-03-29T05:30:08.594Z,28.38
2018-03-29T05:31:14.066Z,28.35
2018-03-29T05:32:18.931Z,31.17
2018-03-29T05:33:23.707Z,34.67
2018-03-29T05:34:28.284Z,31.77
2018-03-29T05:35:33.850Z,29.73
2018-03-29T05:36:38.471Z,31.53
2018-03-29T05:37:43.123Z,33.67
2018-03-29T05:38:48.457Z,36.80
2018-03-29T05:39:53.059Z,37.13
2018-03-29T05:40:58.255Z,50.60
2018-03-29T05:42:03.166Z,43.45
2018-03-29T05:43:08.194Z,41.75
2018-03-29T05:44:13.213Z,36.13
2018-03-29T05:45:18.138Z,32.63
2018-03-29T05:46:22.959Z,37.25
2018-03-29T05:47:27.681Z,40.72
2018-03-29T05:48:32.288Z,35.78
2018-03-29T05:49:37.478Z,32.38
2018-03-29T05:50:42.693Z,34.05
2018-03-29T05:51:48.493Z,36.95
2018-03-29T05:52:53.270Z,35.45
2018-03-29T05:53:58.218Z,36.90
2018-03-29T05:55:02.985Z,31.80
2018-03-29T05:56:08.505Z,32.08
2018-03-29T05:57:13.284Z,39.35
2018-03-29T05:58:18.282Z,42.00
2018-03-29T05:59:23.406Z,42.97
2018-03-29T06:00:28.174Z,50.92
2018-03-29T06:01:34.488Z,36.10
2018-03-29T06:02:39.999Z,31.15
2018-03-29T06:03:45.995Z,32.20
2018-03-29T06:04:51.503Z,31.25
2018-03-29T06:05:58.262Z,32.08
2018-03-29T06:07:04.064Z,29.00
2018-03-29T06:08:09.178Z,32.30
2018-03-29T06:09:14.291Z,28.00
2018-03-29T06:10:19.649Z,32.88
2018-03-29T06:11:26.388Z,31.45
2018-03-29T06:12:31.412Z,29.80
2018-03-29T06:13:40.406Z,30.02
2018-03-29T06:14:48.149Z,28.77
2018-03-29T06:15:57.268Z,28.42
2018-03-29T06:17:02.783Z,29.17
2018-03-29T06:18:11.788Z,29.83
2018-03-29T06:19:16.840Z,30.90
2018-03-29T06:20:22.657Z,30.20
2018-03-29T06:21:27.584Z,31.08
2018-03-29T06:22:32.862Z,33.28
2018-03-29T06:23:37.515Z,28.48
2018-03-29T06:24:42.522Z,30.12
2018-03-29T06:25:48.932Z,33.50
2018-03-29T06:26:53.495Z,29.55
2018-03-29T06:27:59.137Z,35.00
2018-03-29T06:29:05.454Z,30.17
2018-03-29T06:30:10.827Z,31.48
2018-03-29T06:31:17.174Z,28.20
2018-03-29T06:32:23.273Z,31.00
2018-03-29T06:33:28.226Z,34.63
2018-03-29T06:34:33.313Z,30.52
2018-03-29T06:35:38.740Z,31.92
2018-03-29T06:36:44.301Z,30.23
2018-03-29T06:37:50.363Z,29.63
2018-03-29T06:38:55.045Z,29.60
2018-03-29T06:40:00.190Z,31.17
2018-03-29T06:41:05.235Z,30.90
2018-03-29T06:42:11.404Z,32.28
2018-03-29T06:43:17.333Z,30.62
2018-03-29T06:44:22.524Z,33.45
2018-03-29T06:45:27.638Z,31.77
2018-03-29T06:46:32.854Z,31.50
2018-03-29T06:47:38.599Z,30.42
2018-03-29T06:48:44.282Z,37.53
2018-03-29T06:49:50.180Z,31.33
2018-03-29T06:50:55.469Z,32.85
2018-03-29T06:52:00.541Z,30.92
2018-03-29T06:54:27.546Z,36.53
2018-03-29T06:55:33.496Z,33.47
2018-03-29T06:56:39.507Z,36.38
2018-03-29T06:57:44.612Z,33.17
2018-03-29T06:58:50.791Z,36.93
2018-03-29T06:59:57.071Z,35.70
2018-03-29T07:01:03.975Z,34.00
2018-03-29T07:02:09.467Z,36.47
2018-03-29T07:03:15.454Z,36.08
2018-03-29T07:04:20.460Z,37.25
2018-03-29T07:05:25.843Z,39.72
2018-03-29T07:06:31.143Z,36.60
2018-03-29T07:07:37.179Z,37.28
2018-03-29T07:08:42.166Z,40.20
2018-03-29T07:09:50.472Z,38.67
2018-03-29T07:10:56.639Z,38.42
2018-03-29T07:12:02.045Z,40.08
2018-03-29T07:13:07.320Z,37.50
2018-03-29T07:14:12.639Z,37.67
2018-03-29T07:15:18.109Z,38.55
2018-03-29T07:16:23.540Z,40.35
2018-03-29T07:17:28.947Z,39.35
2018-03-29T07:18:34.244Z,33.92
2018-03-29T07:19:40.104Z,36.45
2018-03-29T07:20:46.192Z,36.70
2018-03-29T07:21:52.292Z,36.80
2018-03-29T07:22:58.308Z,37.90
2018-03-29T07:24:03.544Z,36.78
2018-03-29T07:25:08.766Z,37.58
2018-03-29T07:26:14.019Z,35.25
2018-03-29T07:27:20.256Z,38.35
2018-03-29T07:28:25.531Z,31.62
2018-03-29T07:29:30.797Z,37.77
2018-03-29T07:30:36.082Z,36.15
2018-03-29T07:31:41.931Z,38.58
2018-03-29T07:32:48.121Z,40.20
2018-03-29T07:33:53.126Z,31.37
2018-03-29T07:34:58.241Z,35.75
2018-03-29T07:36:03.351Z,37.75
2018-03-29T07:37:08.519Z,35.05
2018-03-29T07:38:14.843Z,38.63
2018-03-29T07:39:20.119Z,35.53
2018-03-29T07:40:25.623Z,35.80
2018-03-29T07:41:30.862Z,68.50
2018-03-29T07:42:36.082Z,56.92
2018-03-29T07:43:41.677Z,37.65
2018-03-29T07:44:48.244Z,39.47
2018-03-29T07:45:53.265Z,36.05
2018-03-29T07:46:59.091Z,33.78
2018-03-29T07:48:05.415Z,33.45
2018-03-29T07:49:10.637Z,35.90
2018-03-29T07:50:15.962Z,33.00
2018-03-29T07:51:21.158Z,36.20
2018-03-29T07:52:26.100Z,34.65
2018-03-29T07:53:31.364Z,34.67
2018-03-29T07:54:36.846Z,31.05
2018-03-29T07:55:42.056Z,34.80
2018-03-29T07:56:48.921Z,30.55
2018-03-29T07:57:54.937Z,33.50
2018-03-29T07:59:00.194Z,31.30
2018-03-29T08:00:06.351Z,27.75
2018-03-29T08:01:12.526Z,25.55
2018-03-29T08:02:17.591Z,26.58
2018-03-29T08:03:22.755Z,27.48
2018-03-29T08:04:28.837Z,24.30
2018-03-29T08:05:34.621Z,25.40
2018-03-29T08:06:39.717Z,27.65
2018-03-29T08:07:46.181Z,23.85
2018-03-29T08:08:51.723Z,31.90
2018-03-29T08:09:56.957Z,28.05
2018-03-29T08:11:02.422Z,24.60
2018-03-29T08:12:08.170Z,27.52
2018-03-29T08:13:14.164Z,26.55
2018-03-29T08:14:19.498Z,24.98
2018-03-29T08:15:24.903Z,26.85
2018-03-29T08:16:30.095Z,24.40
2018-03-29T08:17:36.181Z,22.62
2018-03-29T08:18:41.666Z,26.35
2018-03-29T08:19:47.799Z,23.08
2018-03-29T08:20:52.999Z,26.08
2018-03-29T08:21:58.337Z,26.12
2018-03-29T08:23:03.814Z,25.75
2018-03-29T08:24:10.329Z,22.00
2018-03-29T08:25:15.639Z,43.95
2018-03-29T08:26:20.780Z,31.40
2018-03-29T08:27:25.890Z,27.35
2018-03-29T08:28:31.129Z,26.95
2018-03-29T08:29:36.327Z,22.90
2018-03-29T08:30:41.933Z,26.12
2018-03-29T08:31:47.475Z,31.12
2018-03-29T08:32:52.482Z,24.98
2018-03-29T08:33:57.962Z,28.10
2018-03-29T08:35:03.469Z,33.93
2018-03-29T08:36:08.725Z,24.37
2018-03-29T08:37:14.652Z,21.52
2018-03-29T08:38:20.578Z,25.35
2018-03-29T08:39:25.818Z,24.75
2018-03-29T08:40:30.985Z,23.17
2018-03-29T08:41:37.190Z,22.00
2018-03-29T08:42:42.250Z,25.42
2018-03-29T08:43:48.103Z,22.00
2018-03-29T08:44:53.832Z,23.65
2018-03-29T08:45:59.458Z,28.50
2018-03-29T08:47:05.283Z,22.02
2018-03-29T08:48:11.078Z,23.30
2018-03-29T08:49:16.414Z,22.58
2018-03-29T08:50:21.866Z,19.27
2018-03-29T08:51:26.956Z,19.65
2018-03-29T08:52:32.060Z,23.30
2018-03-29T08:53:38.419Z,19.52
2018-03-29T08:54:44.346Z,18.87
2018-03-29T08:55:51.440Z,17.10
2018-03-29T08:56:57.308Z,23.45
2018-03-29T08:58:02.473Z,19.42
2018-03-29T08:59:07.540Z,22.08
2018-03-29T09:00:12.504Z,22.55
2018-03-29T09:01:18.066Z,18.25
2018-03-29T09:02:23.364Z,19.85
2018-03-29T09:03:29.558Z,20.10
2018-03-29T09:04:35.457Z,18.37
2018-03-29T09:05:40.494Z,21.37
2018-03-29T09:06:46.318Z,15.63
2018-03-29T09:07:51.754Z,16.37
2018-03-29T09:08:56.976Z,15.82
2018-03-29T09:10:02.196Z,17.75
2018-03-29T09:11:07.119Z,18.65
2018-03-29T09:12:12.623Z,19.42
2018-03-29T09:13:20.884Z,17.90
2018-03-29T09:14:25.936Z,18.40
2018-03-29T09:15:32.181Z,13.77
2018-03-29T09:16:37.419Z,14.82
2018-03-29T09:17:43.081Z,14.30
2018-03-29T09:18:50.479Z,15.50
2018-03-29T09:19:56.462Z,12.93
2018-03-29T09:21:01.737Z,13.47
2018-03-29T09:22:06.797Z,15.40
2018-03-29T09:23:12.010Z,12.50
2018-03-29T09:24:17.325Z,10.40
2018-03-29T09:25:22.533Z,11.85
2018-03-29T09:26:28.324Z,11.27
2018-03-29T09:27:33.431Z,10.77
2018-03-29T09:28:38.593Z,11.55
2018-03-29T09:29:44.517Z,9.75
2018-03-29T09:30:50.873Z,12.40
2018-03-29T09:31:56.243Z,12.68
2018-03-29T09:33:01.322Z,12.40
2018-03-29T09:34:06.439Z,15.30
2018-03-29T09:35:12.010Z,13.30
2018-03-29T09:36:19.243Z,13.53
2018-03-29T09:37:24.496Z,14.95
2018-03-29T09:38:29.766Z,12.50
2018-03-29T09:39:34.909Z,13.32
2018-03-29T09:40:41.202Z,13.00
2018-03-29T09:41:47.635Z,14.32
2018-03-29T09:42:54.115Z,12.77
2018-03-29T09:43:59.386Z,15.85
2018-03-29T09:45:04.598Z,11.55
2018-03-29T09:46:09.726Z,13.38
2018-03-29T09:47:14.813Z,8.73
2018-03-29T09:48:19.817Z,10.82
2018-03-29T09:49:25.061Z,9.38
2018-03-29T09:50:31.414Z,10.68
2018-03-29T09:51:36.940Z,10.68
2018-03-29T09:52:42.181Z,10.25
2018-03-29T09:53:48.384Z,10.10
2018-03-29T09:54:53.516Z,11.25
2018-03-29T09:55:58.586Z,9.02
2018-03-29T09:57:04.143Z,9.35
2018-03-29T09:58:09.398Z,10.70
2018-03-29T09:59:14.979Z,8.65
2018-03-29T10:00:23.960Z,11.82
2018-03-29T10:01:33.050Z,9.75
2018-03-29T10:02:39.329Z,9.38
2018-03-29T10:03:48.356Z,7.10
2018-03-29T10:04:58.292Z,10.23
2018-03-29T10:06:04.908Z,10.32
2018-03-29T10:07:13.981Z,10.18
2018-03-29T10:08:20.316Z,9.55
2018-03-29T10:09:25.393Z,7.87
2018-03-29T10:10:31.152Z,12.35
2018-03-29T10:11:37.084Z,6.60
2018-03-29T10:12:42.088Z,5.82
2018-03-29T10:13:48.150Z,9.80
2018-03-29T10:14:53.846Z,6.18
2018-03-29T10:15:59.246Z,5.90
2018-03-29T10:17:04.502Z,6.37
2018-03-29T10:18:09.623Z,6.30
2018-03-29T10:19:16.074Z,7.10
2018-03-29T10:20:21.084Z,5.40
2018-03-29T10:21:27.427Z,5.85
2018-03-29T10:22:33.600Z,8.65
2018-03-29T10:23:38.806Z,7.53
2018-03-29T10:24:43.950Z,13.05
2018-03-29T10:25:49.956Z,5.40
2018-03-29T10:26:55.074Z,7.15
2018-03-29T10:28:00.333Z,5.20
2018-03-29T10:29:05.426Z,5.80
2018-03-29T10:30:10.862Z,7.60
2018-03-29T10:31:15.897Z,8.30
2018-03-29T10:32:20.994Z,9.90
2018-03-29T10:33:26.834Z,5.65
2018-03-29T10:34:32.716Z,5.50
2018-03-29T10:35:38.675Z,5.00
2018-03-29T10:36:43.863Z,7.37
2018-03-29T10:37:50.739Z,6.55
2018-03-29T10:38:55.985Z,10.23
2018-03-29T10:40:00.996Z,6.10
2018-03-29T10:41:06.240Z,4.65
2018-03-29T10:42:11.318Z,5.68
2018-03-29T10:43:17.168Z,8.38
2018-03-29T10:44:22.998Z,7.80
2018-03-29T10:45:28.060Z,6.22
2018-03-29T10:46:33.517Z,5.50
2018-03-29T10:47:39.213Z,7.78
2018-03-29T10:48:45.101Z,5.43
2018-03-29T10:49:51.743Z,5.47
2018-03-29T10:50:56.733Z,5.03
2018-03-29T10:52:02.626Z,10.48
2018-03-29T10:53:07.705Z,4.57
2018-03-29T10:54:13.005Z,7.10
2018-03-29T10:55:18.285Z,5.50
2018-03-29T10:56:23.393Z,7.25
2018-03-29T10:57:29.329Z,6.65
2018-03-29T10:58:34.921Z,6.90
2018-03-29T10:59:40.236Z,7.00
2018-03-29T11:00:46.057Z,6.93
2018-03-29T11:01:51.377Z,6.57
2018-03-29T11:02:57.406Z,5.22
2018-03-29T11:04:02.381Z,6.43
2018-03-29T11:05:08.447Z,4.07
2018-03-29T11:06:13.523Z,6.35
2018-03-29T11:07:18.655Z,4.47
2018-03-29T11:08:24.425Z,5.60
2018-03-29T11:09:29.903Z,7.50
2018-03-29T11:10:35.323Z,3.87
2018-03-29T11:11:40.221Z,4.75
2018-03-29T11:12:45.565Z,4.10
2018-03-29T11:13:51.462Z,7.07
2018-03-29T11:14:56.531Z,8.20
2018-03-29T11:16:01.679Z,4.40
2018-03-29T11:17:06.554Z,5.10
2018-03-29T11:18:11.923Z,13.43
2018-03-29T11:19:17.191Z,8.75
2018-03-29T11:20:23.023Z,9.30
2018-03-29T11:21:28.075Z,5.87
2018-03-29T11:22:33.989Z,5.50
2018-03-29T11:23:39.241Z,3.85
2018-03-29T11:24:45.006Z,4.40
2018-03-29T11:25:52.606Z,3.70
2018-03-29T11:26:57.567Z,10.07
2018-03-29T11:28:03.551Z,5.70
2018-03-29T11:29:08.746Z,5.03
2018-03-29T11:30:14.467Z,10.23
2018-03-29T11:31:19.378Z,3.45
2018-03-29T11:32:24.659Z,3.97
2018-03-29T11:33:29.854Z,3.78
2018-03-29T11:34:34.771Z,6.28
2018-03-29T11:35:40.438Z,9.90
2018-03-29T11:36:47.174Z,7.80
2018-03-29T11:37:52.423Z,6.75
2018-03-29T11:38:58.549Z,10.90
2018-03-29T11:40:03.504Z,8.65
2018-03-29T11:41:08.424Z,5.12
2018-03-29T11:42:13.406Z,5.22
2018-03-29T11:43:18.644Z,3.63
2018-03-29T11:44:24.340Z,4.00
2018-03-29T11:45:29.311Z,7.47
2018-03-29T11:46:34.262Z,6.57
2018-03-29T11:47:39.031Z,3.90
2018-03-29T11:48:43.841Z,4.40
2018-03-29T11:49:50.605Z,9.82
2018-03-29T11:50:55.487Z,6.12
2018-03-29T11:52:00.368Z,6.20
2018-03-29T11:53:05.413Z,5.40
2018-03-29T11:54:11.694Z,6.70
2018-03-29T11:55:16.697Z,4.90
2018-03-29T11:56:22.545Z,3.83
2018-03-29T11:57:28.289Z,4.62
2018-03-29T11:58:33.594Z,7.30
2018-03-29T11:59:40.468Z,8.83
2018-03-29T12:00:47.541Z,5.65
2018-03-29T12:01:53.303Z,5.37
2018-03-29T12:02:58.395Z,6.87
2018-03-29T12:04:04.427Z,4.22
2018-03-29T12:05:10.169Z,7.30
2018-03-29T12:06:15.335Z,6.45
2018-03-29T12:07:21.514Z,7.47
2018-03-29T12:08:26.682Z,4.53
2018-03-29T12:09:31.912Z,8.63
2018-03-29T12:10:36.943Z,7.20
2018-03-29T12:11:41.970Z,3.90
2018-03-29T12:12:48.742Z,10.10
2018-03-29T12:13:54.682Z,6.85
2018-03-29T12:15:00.686Z,4.00
2018-03-29T12:16:05.879Z,4.37
2018-03-29T12:17:11.293Z,5.00
2018-03-29T12:18:17.616Z,16.30
2018-03-29T12:19:22.893Z,10.93
2018-03-29T12:20:28.218Z,5.85
2018-03-29T12:21:34.225Z,8.40
2018-03-29T12:22:39.351Z,4.50
2018-03-29T12:23:44.479Z,3.33
2018-03-29T12:24:50.686Z,2.00
2018-03-29T12:25:55.606Z,3.50
2018-03-29T12:27:00.645Z,3.35
2018-03-29T12:28:05.655Z,5.28
2018-03-29T12:29:10.570Z,4.20
2018-03-29T12:30:15.892Z,4.22
2018-03-29T12:31:21.224Z,5.37
2018-03-29T12:32:26.565Z,4.03
2018-03-29T12:33:31.603Z,3.27
2018-03-29T12:34:36.888Z,3.00
2018-03-29T12:35:42.974Z,2.83
2018-03-29T12:36:49.160Z,5.07
2018-03-29T12:37:54.235Z,3.22
2018-03-29T12:38:59.213Z,3.00
2018-03-29T12:40:04.445Z,2.90
2018-03-29T12:41:12.520Z,6.80
2018-03-29T12:42:17.530Z,2.72
2018-03-29T12:43:22.749Z,5.50
2018-03-29T12:44:28.040Z,2.15
2018-03-29T12:45:33.692Z,2.40
2018-03-29T12:46:40.410Z,2.30
2018-03-29T12:47:46.799Z,4.15
2018-03-29T12:48:52.644Z,2.80
2018-03-29T12:49:58.336Z,2.60
2018-03-29T12:51:03.530Z,2.42
2018-03-29T12:52:08.988Z,2.80
2018-03-29T12:53:14.171Z,3.15
2018-03-29T12:54:20.036Z,3.55
2018-03-29T12:55:35.428Z,2.60
2018-03-29T12:56:48.981Z,3.00
2018-03-29T12:58:24.756Z,5.53
2018-03-29T12:59:31.147Z,2.55
2018-03-29T13:00:36.674Z,2.50
2018-03-29T13:01:41.858Z,3.10
2018-03-29T13:02:47.546Z,2.40
2018-03-29T13:03:53.893Z,2.97
2018-03-29T13:04:59.188Z,7.82
2018-03-29T13:06:04.983Z,2.65
2018-03-29T13:07:09.952Z,4.55
2018-03-29T13:08:15.833Z,3.50
2018-03-29T13:09:21.048Z,2.50
2018-03-29T13:10:26.027Z,5.43
2018-03-29T13:11:31.093Z,3.72
2018-03-29T13:12:36.781Z,4.40
2018-03-29T13:13:42.070Z,2.25
2018-03-29T13:14:48.554Z,2.97
2018-03-29T13:15:53.735Z,2.87
2018-03-29T13:16:59.646Z,2.70
2018-03-29T13:18:04.556Z,5.00
2018-03-29T13:19:10.573Z,4.45
2018-03-29T13:20:15.720Z,4.30
2018-03-29T13:21:21.702Z,10.50
2018-03-29T13:22:26.885Z,6.05
2018-03-29T13:23:32.215Z,9.43
2018-03-29T13:24:37.169Z,9.93
2018-03-29T13:25:42.339Z,11.38
2018-03-29T13:26:49.268Z,9.52
2018-03-29T13:27:54.395Z,5.32
2018-03-29T13:28:59.519Z,4.55
2018-03-29T13:30:04.747Z,14.30
2018-03-29T13:31:10.063Z,10.43
2018-03-29T13:32:15.401Z,15.55
2018-03-29T13:33:20.223Z,6.12
2018-03-29T13:34:25.458Z,27.45
2018-03-29T13:35:30.810Z,12.55
2018-03-29T13:36:36.503Z,9.30
2018-03-29T13:37:41.629Z,15.57
2018-03-29T13:38:49.890Z,8.70
2018-03-29T13:39:55.220Z,13.90
2018-03-29T13:41:01.011Z,8.38
2018-03-29T13:42:06.042Z,6.85
2018-03-29T13:43:11.818Z,28.65
2018-03-29T13:44:17.400Z,11.77
2018-03-29T13:45:22.520Z,11.10
2018-03-29T13:46:27.619Z,14.52
2018-03-29T13:47:32.716Z,5.80
2018-03-29T13:48:37.847Z,7.50
2018-03-29T13:49:43.029Z,17.40
2018-03-29T13:50:49.139Z,7.75
2018-03-29T13:51:55.088Z,13.10
2018-03-29T13:53:00.700Z,6.53
2018-03-29T13:54:05.776Z,19.25
2018-03-29T13:55:10.994Z,8.10
2018-03-29T13:56:16.037Z,7.07
2018-03-29T13:57:20.968Z,4.72
2018-03-29T13:58:25.933Z,4.45
2018-03-29T13:59:31.230Z,3.90
2018-03-29T14:00:36.034Z,3.75
2018-03-29T14:01:40.915Z,6.80
2018-03-29T14:02:47.603Z,18.35
2018-03-29T14:03:52.894Z,11.47
2018-03-29T14:04:57.914Z,5.20
2018-03-29T14:06:02.962Z,5.80
2018-03-29T14:07:08.800Z,5.97
2018-03-29T14:08:14.723Z,7.70
2018-03-29T14:09:19.878Z,8.68
2018-03-29T14:10:25.497Z,7.40
2018-03-29T14:11:31.201Z,11.00